createdAt,value
2023-03-05T00:01:18.301Z,7.38
2023-03-05T00:03:46.807Z,11.05
2023-03-05T00:06:14.611Z,8.43
2023-03-05T00:08:42.264Z,9.75
2023-03-05T00:11:11.562Z,9.50
2023-03-05T00:13:39.513Z,13.15
2023-03-05T00:16:10.398Z,13.90
2023-03-05T00:18:38.800Z,7.95
2023-03-05T00:21:17.263Z,10.75
2023-03-05T00:23:44.645Z,7.88
2023-03-05T00:26:12.110Z,11.57
2023-03-05T00:28:39.314Z,10.25
2023-03-05T00:31:06.510Z,10.18
2023-03-05T00:33:34.470Z,9.48
2023-03-05T00:36:06.767Z,10.10
2023-03-05T00:38:35.003Z,13.15
2023-03-05T00:41:03.401Z,10.52
2023-03-05T00:43:30.899Z,10.40
2023-03-05T00:45:58.451Z,14.60
2023-03-05T00:48:26.161Z,12.30
2023-03-05T00:50:53.530Z,10.07
2023-03-05T00:53:22.962Z,9.93
2023-03-05T00:55:50.978Z,8.13
2023-03-05T00:58:18.848Z,11.27
2023-03-05T01:00:46.634Z,6.50
2023-03-05T01:03:14.154Z,9.13
2023-03-05T01:05:43.264Z,8.57
2023-03-05T01:08:11.347Z,13.30
2023-03-05T01:10:42.546Z,10.70
2023-03-05T01:13:11.221Z,9.70
2023-03-05T01:15:39.356Z,8.50
2023-03-05T01:18:08.359Z,8.25
2023-03-05T01:20:38.725Z,9.75
2023-03-05T01:23:06.780Z,6.65
2023-03-05T01:25:35.490Z,7.45
2023-03-05T01:28:06.248Z,6.38
2023-03-05T01:30:34.991Z,7.40
2023-03-05T01:33:03.447Z,11.43
2023-03-05T01:35:31.422Z,8.07
2023-03-05T01:37:59.521Z,10.27
2023-03-05T01:40:29.593Z,8.32
2023-03-05T01:45:35.711Z,6.60
2023-03-05T01:48:05.001Z,8.23
2023-03-05T01:50:34.184Z,8.70
2023-03-05T01:53:06.058Z,9.68
2023-03-05T01:55:37.396Z,7.90
2023-03-05T01:58:10.399Z,9.25
2023-03-05T02:00:52.995Z,8.63
2023-03-05T02:03:23.098Z,9.77
2023-03-05T02:05:53.812Z,10.23
2023-03-05T02:08:23.080Z,9.35
2023-03-05T02:10:56.541Z,9.05
2023-03-05T02:13:31.707Z,7.05
2023-03-05T02:16:01.420Z,9.77
2023-03-05T02:18:30.608Z,7.82
2023-03-05T02:20:58.270Z,9.05
2023-03-05T02:23:30.282Z,8.88
2023-03-05T02:25:59.052Z,8.73
2023-03-05T02:28:40.064Z,11.60
2023-03-05T02:31:16.389Z,9.07
2023-03-05T02:33:45.364Z,8.70
2023-03-05T02:36:13.768Z,8.10
2023-03-05T02:38:42.583Z,7.97
2023-03-05T02:41:11.515Z,7.72
2023-03-05T02:43:40.058Z,9.13
2023-03-05T02:46:08.820Z,11.30
2023-03-05T02:48:37.803Z,8.65
2023-03-05T02:51:07.776Z,9.25
2023-03-05T02:53:36.040Z,11.10
2023-03-05T02:56:04.611Z,10.32
2023-03-05T02:58:32.564Z,10.93
2023-03-05T03:01:00.192Z,12.13
2023-03-05T03:03:30.550Z,10.82
2023-03-05T03:05:58.965Z,11.98
2023-03-05T03:08:27.232Z,12.35
2023-03-05T03:10:56.693Z,10.98
2023-03-05T03:13:25.456Z,9.55
2023-03-05T03:16:13.705Z,9.30
2023-03-05T03:18:42.583Z,11.30
2023-03-05T03:21:21.868Z,12.95
2023-03-05T03:23:51.781Z,11.77
2023-03-05T03:28:49.351Z,7.43
2023-03-05T03:31:19.890Z,9.10
2023-03-05T03:33:47.863Z,10.88
2023-03-05T03:36:15.805Z,8.48
2023-03-05T03:38:43.687Z,13.65
2023-03-05T03:41:12.119Z,10.48
2023-03-05T03:43:40.137Z,8.82
2023-03-05T03:46:09.664Z,9.30
2023-03-05T03:48:37.244Z,10.13
2023-03-05T03:51:07.396Z,11.48
2023-03-05T03:53:35.203Z,10.00
2023-03-05T03:56:04.622Z,12.27
2023-03-05T03:58:33.320Z,16.60
2023-03-05T04:03:29.927Z,10.50
2023-03-05T04:05:59.173Z,17.02
2023-03-05T04:08:30.431Z,10.88
2023-03-05T04:11:02.037Z,12.23
2023-03-05T04:13:30.584Z,12.80
2023-03-05T04:15:59.582Z,8.52
2023-03-05T04:18:29.777Z,11.35
2023-03-05T04:21:00.221Z,12.90
2023-03-05T04:23:29.396Z,11.40
2023-03-05T04:26:02.739Z,11.77
2023-03-05T04:28:33.079Z,9.48
2023-03-05T04:31:03.216Z,10.73
2023-03-05T04:33:32.588Z,12.15
2023-03-05T04:36:01.970Z,8.55
2023-03-05T04:38:34.234Z,8.15
2023-03-05T04:41:03.272Z,11.80
2023-03-05T04:43:31.828Z,10.30
2023-03-05T04:45:59.922Z,10.10
2023-03-05T04:48:27.994Z,11.48
2023-03-05T04:50:55.297Z,10.32
2023-03-05T04:53:23.960Z,10.73
2023-03-05T04:55:55.902Z,10.75
2023-03-05T04:58:24.201Z,8.60
2023-03-05T05:00:52.667Z,10.80
2023-03-05T05:03:20.762Z,9.95
2023-03-05T05:05:55.871Z,12.25
2023-03-05T05:08:24.698Z,9.57
2023-03-05T05:11:01.311Z,9.70
2023-03-05T05:13:32.458Z,9.50
2023-03-05T05:16:00.996Z,9.43
2023-03-05T05:18:29.446Z,9.57
2023-03-05T05:20:57.938Z,11.98
2023-03-05T05:23:27.918Z,9.82
2023-03-05T05:26:01.728Z,10.25
2023-03-05T05:28:30.717Z,9.60
2023-03-05T05:30:58.817Z,8.90
2023-03-05T05:33:27.415Z,11.73
2023-03-05T05:35:57.973Z,9.65
2023-03-05T05:38:26.107Z,10.02
2023-03-05T05:40:53.470Z,12.15
2023-03-05T05:43:20.992Z,10.13
2023-03-05T05:45:49.207Z,8.95
2023-03-05T05:48:17.640Z,8.98
2023-03-05T05:50:45.739Z,8.23
2023-03-05T05:53:24.128Z,9.57
2023-03-05T05:55:54.339Z,9.50
2023-03-05T05:58:22.904Z,10.02
2023-03-05T06:00:53.336Z,12.60
2023-03-05T06:03:24.326Z,13.02
2023-03-05T06:05:52.997Z,9.63
2023-03-05T06:08:21.513Z,12.45
2023-03-05T06:10:59.156Z,10.82
2023-03-05T06:13:27.419Z,10.25
2023-03-05T06:16:02.072Z,12.15
2023-03-05T06:18:31.169Z,11.70
2023-03-05T06:21:03.689Z,12.05
2023-03-05T06:23:32.205Z,9.25
2023-03-05T06:26:02.373Z,10.95
2023-03-05T06:28:31.489Z,13.07
2023-03-05T06:31:14.186Z,9.73
2023-03-05T06:36:13.789Z,12.70
2023-03-05T06:38:42.226Z,9.07
2023-03-05T06:41:13.803Z,10.43
2023-03-05T06:43:44.404Z,11.05
2023-03-05T06:46:27.987Z,12.00
2023-03-05T06:51:27.817Z,7.10
2023-03-05T06:53:59.825Z,11.18
2023-03-05T06:56:28.327Z,11.13
2023-03-05T06:58:57.323Z,9.27
2023-03-05T07:01:25.974Z,11.00
2023-03-05T07:03:55.754Z,7.97
2023-03-05T07:06:24.193Z,11.57
2023-03-05T07:08:55.862Z,9.00
2023-03-05T07:16:21.822Z,9.07
2023-03-05T07:18:52.456Z,10.75
2023-03-05T07:21:23.256Z,15.30
2023-03-05T07:23:58.621Z,13.88
2023-03-05T07:26:28.939Z,11.85
2023-03-05T07:28:57.254Z,9.57
2023-03-05T07:31:30.927Z,12.18
2023-03-05T07:34:02.046Z,13.18
2023-03-05T07:36:31.155Z,10.75
2023-03-05T07:38:59.517Z,9.98
2023-03-05T07:41:28.585Z,8.80
2023-03-05T07:46:28.138Z,7.50
2023-03-05T07:48:56.951Z,7.78
2023-03-05T07:51:26.632Z,10.13
2023-03-05T07:53:59.115Z,8.70
2023-03-05T07:56:35.454Z,11.85
2023-03-05T07:59:11.307Z,10.05
2023-03-05T08:01:40.171Z,12.23
2023-03-05T08:04:10.977Z,10.23
2023-03-05T08:06:41.054Z,10.38
2023-03-05T08:09:09.493Z,10.25
2023-03-05T08:11:39.822Z,10.77
2023-03-05T08:14:09.512Z,11.45
2023-03-05T08:16:40.056Z,9.73
2023-03-05T08:19:10.862Z,11.15
2023-03-05T08:21:40.898Z,9.15
2023-03-05T08:24:10.980Z,9.75
2023-03-05T08:26:43.801Z,11.48
2023-03-05T08:29:12.245Z,10.27
2023-03-05T08:31:45.272Z,9.65
2023-03-05T08:34:13.247Z,9.00
2023-03-05T08:36:43.036Z,9.57
2023-03-05T08:39:11.069Z,9.90
2023-03-05T08:41:39.830Z,8.20
2023-03-05T08:44:08.978Z,9.88
2023-03-05T08:46:40.614Z,7.03
2023-03-05T08:49:10.866Z,7.97
2023-03-05T08:51:39.316Z,8.90
2023-03-05T08:54:08.542Z,5.95
2023-03-05T08:56:37.742Z,5.88
2023-03-05T08:59:06.713Z,6.00
2023-03-05T09:01:35.037Z,7.35
2023-03-05T09:04:04.066Z,9.15
2023-03-05T09:06:34.494Z,8.57
2023-03-05T09:09:04.243Z,7.50
2023-03-05T09:11:36.039Z,6.30
2023-03-05T09:14:07.094Z,5.63
2023-03-05T09:16:36.300Z,5.63
2023-03-05T09:19:04.589Z,7.05
2023-03-05T09:21:32.630Z,6.43
2023-03-05T09:24:01.113Z,6.35
2023-03-05T09:26:29.494Z,6.15
2023-03-05T09:28:57.828Z,5.93
2023-03-05T09:31:26.261Z,6.63
2023-03-05T09:33:54.930Z,5.82
2023-03-05T09:36:27.027Z,8.52
2023-03-05T09:38:55.924Z,7.57
2023-03-05T09:42:10.298Z,8.55
2023-03-05T09:45:01.031Z,7.70
2023-03-05T09:47:53.949Z,8.95
2023-03-05T09:50:43.588Z,6.55
2023-03-05T09:53:22.381Z,6.70
2023-03-05T09:55:53.786Z,5.80
2023-03-05T09:58:37.045Z,9.55
2023-03-05T10:01:09.658Z,7.13
2023-03-05T10:03:56.930Z,7.43
2023-03-05T10:06:30.984Z,4.97
2023-03-05T10:09:11.449Z,6.88
2023-03-05T10:11:59.285Z,7.57
2023-03-05T10:14:34.925Z,6.53
2023-03-05T10:17:31.578Z,6.90
2023-03-05T10:20:21.437Z,6.72
2023-03-05T10:23:15.715Z,13.60
2023-03-05T10:25:55.005Z,7.82
2023-03-05T10:28:27.880Z,6.38
2023-03-05T10:31:24.903Z,7.75
2023-03-05T10:34:33.423Z,9.55
2023-03-05T10:37:22.103Z,7.00
2023-03-05T10:40:26.690Z,7.47
2023-03-05T10:43:15.798Z,7.10
2023-03-05T10:45:49.875Z,6.70
2023-03-05T10:48:34.099Z,9.15
2023-03-05T10:51:09.881Z,8.38
2023-03-05T10:53:52.125Z,8.30
2023-03-05T10:56:22.797Z,7.85
2023-03-05T10:58:53.652Z,9.70
2023-03-05T11:01:23.851Z,8.57
2023-03-05T11:04:06.496Z,8.93
2023-03-05T11:06:42.729Z,6.82
2023-03-05T11:09:24.633Z,8.38
2023-03-05T11:12:20.545Z,7.57
2023-03-05T11:15:06.636Z,7.07
2023-03-05T11:17:43.451Z,6.93
2023-03-05T11:20:29.417Z,6.03
2023-03-05T11:23:11.094Z,6.57
2023-03-05T11:26:01.244Z,5.75
2023-03-05T11:28:39.097Z,7.60
2023-03-05T11:31:18.554Z,15.52
2023-03-05T11:34:26.170Z,6.97
2023-03-05T11:36:53.233Z,8.50
2023-03-05T11:39:24.416Z,8.02
2023-03-05T11:42:00.690Z,9.77
2023-03-05T11:44:56.002Z,7.20
2023-03-05T11:47:32.312Z,7.38
2023-03-05T11:50:23.037Z,8.93
2023-03-05T11:53:09.703Z,8.18
2023-03-05T11:55:43.192Z,7.72
2023-03-05T11:58:13.861Z,8.48
2023-03-05T12:00:44.807Z,11.02
2023-03-05T12:03:15.404Z,7.85
2023-03-05T12:05:45.691Z,7.07
2023-03-05T12:10:47.046Z,8.60
2023-03-05T12:13:37.836Z,6.03
2023-03-05T12:16:14.902Z,8.93
2023-03-05T12:19:08.741Z,8.20
2023-03-05T12:21:41.749Z,6.03
2023-03-05T12:24:26.716Z,6.80
2023-03-05T12:27:03.765Z,8.05
2023-03-05T12:29:51.391Z,9.13
2023-03-05T12:32:31.542Z,9.25
2023-03-05T12:35:05.410Z,7.93
2023-03-05T12:37:32.350Z,7.45
2023-03-05T12:40:09.015Z,5.80
2023-03-05T12:45:19.593Z,8.10
2023-03-05T12:48:12.055Z,10.85
2023-03-05T12:50:39.139Z,7.88
2023-03-05T12:53:20.887Z,6.70
2023-03-05T12:56:01.717Z,10.32
2023-03-05T12:58:44.696Z,7.70
2023-03-05T13:01:11.698Z,12.48
2023-03-05T13:03:50.551Z,10.82
2023-03-05T13:06:35.538Z,9.68
2023-03-05T13:09:17.126Z,8.95
2023-03-05T13:11:51.769Z,12.93
2023-03-05T13:14:35.962Z,10.73
2023-03-05T13:17:23.700Z,15.43
2023-03-05T13:19:50.866Z,13.77
2023-03-05T13:22:18.070Z,14.55
2023-03-05T13:24:47.616Z,16.02
2023-03-05T13:27:28.988Z,14.60
2023-03-05T13:29:55.997Z,13.30
2023-03-05T13:32:27.824Z,14.32
2023-03-05T13:34:58.089Z,12.95
2023-03-05T13:37:29.963Z,16.00
2023-03-05T13:40:07.190Z,17.02
2023-03-05T13:42:36.774Z,15.48
2023-03-05T13:45:25.951Z,14.70
2023-03-05T13:47:58.950Z,12.20
2023-03-05T13:50:32.612Z,19.45
2023-03-05T13:53:24.440Z,14.18
2023-03-05T13:55:54.706Z,13.50
2023-03-05T13:58:40.598Z,16.02
2023-03-05T14:01:26.372Z,14.23
2023-03-05T14:06:22.536Z,15.15
2023-03-05T14:08:55.172Z,12.98
2023-03-05T14:11:23.201Z,15.80
2023-03-05T14:14:02.659Z,15.50
2023-03-05T14:16:32.814Z,13.98
2023-03-05T14:19:09.255Z,19.98
2023-03-05T14:21:50.631Z,20.63
2023-03-05T14:24:25.501Z,20.67
2023-03-05T14:26:56.578Z,20.83
2023-03-05T14:29:26.421Z,20.27
2023-03-05T14:31:54.688Z,19.20
2023-03-05T14:34:42.173Z,19.70
2023-03-05T14:37:23.738Z,16.70
2023-03-05T14:40:00.801Z,17.55
2023-03-05T14:42:39.388Z,16.85
2023-03-05T14:45:13.396Z,13.23
2023-03-05T14:47:40.597Z,18.17
2023-03-05T14:50:10.355Z,14.85
2023-03-05T14:52:37.906Z,14.50
2023-03-05T14:55:05.444Z,16.60
2023-03-05T14:57:33.096Z,14.25
2023-03-05T15:00:00.120Z,15.48
2023-03-05T15:02:27.219Z,21.88
2023-03-05T15:04:54.133Z,17.88
2023-03-05T15:07:27.214Z,16.00
2023-03-05T15:09:54.361Z,16.90
2023-03-05T15:12:24.821Z,18.60
2023-03-05T15:14:54.276Z,18.30
2023-03-05T15:17:33.561Z,14.90
2023-03-05T15:20:01.076Z,20.10
2023-03-05T15:22:28.060Z,15.77
2023-03-05T15:24:55.021Z,16.88
2023-03-05T15:27:21.910Z,19.27
2023-03-05T15:29:52.899Z,16.40
2023-03-05T15:32:20.838Z,15.43
2023-03-05T15:34:48.286Z,16.30
2023-03-05T15:37:15.697Z,13.55
2023-03-05T15:39:42.735Z,22.95
2023-03-05T15:42:09.613Z,22.88
2023-03-05T15:44:36.700Z,16.63
2023-03-05T15:47:03.596Z,16.30
2023-03-05T15:49:30.654Z,15.90
2023-03-05T15:51:57.787Z,17.55
2023-03-05T15:54:27.783Z,18.50
2023-03-05T15:56:55.454Z,16.70
2023-03-05T15:59:22.657Z,14.20
2023-03-05T16:01:51.750Z,15.98
2023-03-05T16:04:18.961Z,15.65
2023-03-05T16:06:49.208Z,15.43
2023-03-05T16:09:18.487Z,16.80
2023-03-05T16:11:48.123Z,16.20
2023-03-05T16:14:19.453Z,14.88
2023-03-05T16:16:47.692Z,17.83
2023-03-05T16:19:18.054Z,18.05
2023-03-05T16:21:46.772Z,14.10
2023-03-05T16:24:14.107Z,17.83
2023-03-05T16:26:41.717Z,13.98
2023-03-05T16:29:09.220Z,15.25
2023-03-05T16:41:29.718Z,13.15
2023-03-05T16:43:57.598Z,15.73
2023-03-05T16:46:28.034Z,11.45
2023-03-05T16:51:22.209Z,9.85
2023-03-05T16:53:50.773Z,14.15
2023-03-05T16:56:17.827Z,10.80
2023-03-05T16:58:45.174Z,12.20
2023-03-05T17:01:19.816Z,13.48
2023-03-05T17:03:47.961Z,13.48
2023-03-05T17:06:27.787Z,14.77
2023-03-05T17:08:56.523Z,14.57
2023-03-05T17:11:25.740Z,12.75
2023-03-05T17:13:55.280Z,14.52
2023-03-05T17:16:23.671Z,13.32
2023-03-05T17:18:50.673Z,11.68
2023-03-05T17:21:17.838Z,12.85
2023-03-05T17:23:45.536Z,10.52
2023-03-05T17:26:15.769Z,12.43
2023-03-05T17:28:43.229Z,13.43
2023-03-05T17:31:13.642Z,12.23
2023-03-05T17:33:41.784Z,16.58
2023-03-05T17:36:18.328Z,15.93
2023-03-05T17:38:47.633Z,14.50
2023-03-05T17:41:15.724Z,13.63
2023-03-05T17:43:43.331Z,12.68
2023-03-05T17:46:12.558Z,11.18
2023-03-05T17:48:43.233Z,13.82
2023-03-05T17:51:13.584Z,11.45
2023-03-05T17:53:41.137Z,13.07
2023-03-05T17:56:09.827Z,11.18
2023-03-05T17:58:38.096Z,13.55
2023-03-05T18:01:06.899Z,12.02
2023-03-05T18:03:34.681Z,13.20
2023-03-05T18:06:01.929Z,13.88
2023-03-05T18:08:32.300Z,14.30
2023-03-05T18:10:59.481Z,12.13
2023-03-05T18:13:26.766Z,10.60
2023-03-05T18:15:53.991Z,11.70
2023-03-05T18:18:21.319Z,14.25
2023-03-05T18:20:50.320Z,12.23
2023-03-05T18:23:17.619Z,12.48
2023-03-05T18:25:49.016Z,13.15
2023-03-05T18:28:16.813Z,11.02
2023-03-05T18:30:45.836Z,10.75
2023-03-05T18:33:22.540Z,13.27
2023-03-05T18:35:52.410Z,12.05
2023-03-05T18:38:24.802Z,13.65
2023-03-05T18:40:53.451Z,12.25
2023-03-05T18:43:21.895Z,12.57
2023-03-05T18:45:54.909Z,14.77
2023-03-05T18:48:23.007Z,11.57
2023-03-05T18:50:53.866Z,12.43
2023-03-05T18:53:23.196Z,13.10
2023-03-05T18:55:52.702Z,13.00
2023-03-05T18:58:20.042Z,12.90
2023-03-05T19:00:48.050Z,11.38
2023-03-05T19:03:16.511Z,15.30
2023-03-05T19:05:45.962Z,16.92
2023-03-05T19:08:14.054Z,14.23
2023-03-05T19:10:41.042Z,16.05
2023-03-05T19:13:39.948Z,17.75
2023-03-05T19:16:08.210Z,22.53
2023-03-05T19:18:39.678Z,21.15
2023-03-05T19:21:08.264Z,18.13
2023-03-05T19:23:35.807Z,20.95
2023-03-05T19:26:03.724Z,19.90
2023-03-05T19:28:30.792Z,22.85
2023-03-05T19:30:57.859Z,17.52
2023-03-05T19:33:25.143Z,16.35
2023-03-05T19:35:52.313Z,21.58
2023-03-05T19:38:19.308Z,14.98
2023-03-05T19:40:47.745Z,21.15
2023-03-05T19:43:14.879Z,15.32
2023-03-05T19:45:41.920Z,20.05
2023-03-05T19:48:08.962Z,20.10
2023-03-05T19:50:36.006Z,21.38
2023-03-05T19:53:03.357Z,22.73
2023-03-05T19:55:30.575Z,18.75
2023-03-05T19:57:57.892Z,14.40
2023-03-05T20:00:28.611Z,18.83
2023-03-05T20:02:55.696Z,15.88
2023-03-05T20:05:25.613Z,15.13
2023-03-05T20:07:56.022Z,15.85
2023-03-05T20:10:25.415Z,20.55
2023-03-05T20:12:52.542Z,13.88
2023-03-05T20:15:22.681Z,15.40
2023-03-05T20:17:53.290Z,19.75
2023-03-05T20:22:49.590Z,16.90
2023-03-05T20:25:18.028Z,14.68
2023-03-05T20:27:45.044Z,18.52
2023-03-05T20:30:15.351Z,16.02
2023-03-05T20:35:13.917Z,13.68
2023-03-05T20:37:49.505Z,27.60
2023-03-05T20:45:10.807Z,17.83
2023-03-05T20:47:40.977Z,13.68
2023-03-05T20:57:32.236Z,14.50
2023-03-05T21:00:00.402Z,22.90
2023-03-05T21:02:27.742Z,27.30
2023-03-05T21:04:54.945Z,23.40
2023-03-05T21:07:25.855Z,24.80
2023-03-05T21:09:53.469Z,21.83
2023-03-05T21:12:20.646Z,16.85
2023-03-05T21:14:48.192Z,17.63
2023-03-05T21:17:15.301Z,20.77
2023-03-05T21:19:42.432Z,21.58
2023-03-05T21:22:09.749Z,24.30
2023-03-05T21:24:53.574Z,15.68
2023-03-05T21:52:09.414Z,14.38
2023-03-05T21:54:38.117Z,30.10
2023-03-05T21:57:06.366Z,28.10
2023-03-05T21:59:33.597Z,28.13
2023-03-05T22:02:00.909Z,26.65
2023-03-05T22:04:27.834Z,27.65
2023-03-05T22:06:54.768Z,28.17
2023-03-05T22:09:21.956Z,22.92
2023-03-05T22:11:48.849Z,23.85
2023-03-05T22:14:16.994Z,22.45
2023-03-05T22:16:45.248Z,16.10
2023-03-05T22:19:12.263Z,22.27
2023-03-05T22:21:39.349Z,23.65
2023-03-05T22:24:06.618Z,18.05
2023-03-05T22:26:36.712Z,18.90
2023-03-05T22:29:05.443Z,21.90
2023-03-05T22:31:32.379Z,14.38
2023-03-05T22:33:59.396Z,19.48
2023-03-05T22:36:26.579Z,19.95
2023-03-05T22:38:53.731Z,15.32
2023-03-05T22:41:21.630Z,20.70
2023-03-05T22:43:49.942Z,14.27
2023-03-05T22:46:22.750Z,18.60
2023-03-05T22:48:51.614Z,19.48
2023-03-05T22:51:18.933Z,13.40
2023-03-05T22:53:46.525Z,13.32
2023-03-05T22:56:19.219Z,18.25
2023-03-05T22:58:47.365Z,13.85
2023-03-05T23:01:23.814Z,19.35
2023-03-05T23:03:58.772Z,16.40
2023-03-05T23:06:26.548Z,8.35
2023-03-05T23:08:55.109Z,15.05
2023-03-05T23:11:22.245Z,11.23
2023-03-05T23:13:49.346Z,10.38
2023-03-05T23:16:16.495Z,14.02
2023-03-05T23:18:45.692Z,12.50
2023-03-05T23:21:12.796Z,13.95
2023-03-05T23:23:39.663Z,17.15
2023-03-05T23:26:06.769Z,13.73
2023-03-05T23:28:33.805Z,12.30
2023-03-05T23:31:00.938Z,16.73
2023-03-05T23:33:27.989Z,16.00
2023-03-05T23:35:59.820Z,15.15
2023-03-05T23:38:29.507Z,18.23
2023-03-05T23:41:01.143Z,15.30
2023-03-05T23:43:29.723Z,15.02
2023-03-05T23:45:56.969Z,12.85
2023-03-05T23:48:25.484Z,14.48
2023-03-05T23:50:52.921Z,18.60
2023-03-05T23:53:24.502Z,15.43
2023-03-05T23:55:52.392Z,13.43
2023-03-05T23:58:22.804Z,15.88
